Time;durP1;ratioP1;P1;durP2;ratioP2;P2;SDS_P1;SDS_P2;PMS_P1;PMS_P2;Temp;Humidity;BMP_temperature;BMP_pressure;BME280_temperature;BME280_humidity;BME280_pressure;Samples;Min_cycle;Max_cycle;Signal;HPM_P1;HPM_P2
2021/09/22 00:00:48;;;;;;;13.53;12.27;;;11.60;99.90;;;;;;5020498;28;20640;-80
2021/09/22 00:03:13;;;;;;;14.73;13.23;;;11.50;99.90;;;;;;5019636;28;20523;-80
2021/09/22 00:05:39;;;;;;;13.67;12.37;;;11.60;99.90;;;;;;5002115;28;20200;-81
2021/09/22 00:08:05;;;;;;;13.97;12.57;;;11.50;99.90;;;;;;5002408;28;20240;-80
2021/09/22 00:10:30;;;;;;;14.53;12.73;;;11.50;99.90;;;;;;5002554;28;20180;-81
2021/09/22 00:12:56;;;;;;;14.23;12.93;;;11.40;99.90;;;;;;5002110;28;20222;-81
2021/09/22 00:15:24;;;;;;;14.80;13.30;;;11.50;99.90;;;;;;5019841;28;20234;-81
2021/09/22 00:17:50;;;;;;;14.13;12.73;;;11.50;99.90;;;;;;5019839;28;20206;-81
2021/09/22 00:20:17;;;;;;;13.37;12.07;;;11.40;99.90;;;;;;5019661;28;20202;-80
2021/09/22 00:22:43;;;;;;;14.87;12.80;;;11.40;99.90;;;;;;5019391;28;20170;-80
2021/09/22 00:25:09;;;;;;;20.57;13.03;;;11.40;99.90;;;;;;5018575;28;20275;-80
2021/09/22 00:27:37;;;;;;;13.43;12.03;;;11.40;99.90;;;;;;5018765;28;20214;-80
2021/09/22 00:30:03;;;;;;;16.60;12.97;;;11.40;99.90;;;;;;5019426;28;20213;-81
2021/09/22 00:32:29;;;;;;;13.87;12.47;;;11.40;99.90;;;;;;5019185;28;20181;-81
2021/09/22 00:34:55;;;;;;;14.37;12.97;;;11.30;99.90;;;;;;5019044;28;20284;-80
2021/09/22 00:37:21;;;;;;;14.37;12.60;;;11.30;99.90;;;;;;5018996;28;20188;-81
2021/09/22 00:39:47;;;;;;;14.83;13.33;;;11.20;99.90;;;;;;5019451;28;20593;-80
2021/09/22 00:42:13;;;;;;;17.20;13.70;;;11.20;99.90;;;;;;5019032;28;20258;-80
2021/09/22 00:45:11;;;;;;;15.07;13.10;;;11.20;99.90;;;;;;5018648;28;20749;-81
2021/09/22 00:47:37;;;;;;;15.20;13.60;;;11.20;99.90;;;;;;4993151;28;20221;-81
2021/09/22 00:50:03;;;;;;;14.33;12.90;;;11.20;99.90;;;;;;5018737;28;20189;-80
2021/09/22 00:52:30;;;;;;;16.33;14.00;;;11.10;99.90;;;;;;5000899;28;20206;-81
2021/09/22 00:54:55;;;;;;;14.40;13.00;;;11.10;99.90;;;;;;5001422;28;20214;-81
2021/09/22 00:57:22;;;;;;;14.30;12.83;;;11.10;99.90;;;;;;5000733;28;20182;-80
2021/09/22 00:59:48;;;;;;;15.00;13.20;;;11.10;99.90;;;;;;5018623;28;20626;-81
2021/09/22 01:02:14;;;;;;;14.77;13.03;;;11.00;99.90;;;;;;5001220;28;20186;-80
2021/09/22 01:04:42;;;;;;;14.70;13.27;;;11.00;99.90;;;;;;5018693;28;20282;-81
2021/09/22 01:07:12;;;;;;;15.33;13.30;;;11.00;99.90;;;;;;5019080;28;20672;-81
2021/09/22 01:09:39;;;;;;;14.97;13.47;;;10.90;99.90;;;;;;5018015;28;20260;-81
2021/09/22 01:12:05;;;;;;;14.97;13.47;;;10.90;99.90;;;;;;5020881;28;20199;-81
2021/09/22 01:14:31;;;;;;;16.67;13.83;;;;;;;;;;5000426;28;20253;-80
2021/09/22 01:16:57;;;;;;;16.60;14.50;;;10.80;99.90;;;;;;5022352;28;20550;-81
2021/09/22 01:19:26;;;;;;;19.87;14.53;;;10.80;99.90;;;;;;5021928;28;20206;-81
2021/09/22 01:21:54;;;;;;;16.23;14.27;;;10.70;99.90;;;;;;5022394;28;20185;-80
2021/09/22 01:24:20;;;;;;;16.23;13.37;;;10.60;99.90;;;;;;5022133;28;20241;-80
2021/09/22 01:26:47;;;;;;;15.37;13.77;;;10.60;99.90;;;;;;5021556;28;20186;-80
2021/09/22 01:29:14;;;;;;;15.53;13.90;;;10.70;99.90;;;;;;5022405;28;20266;-80
2021/09/22 01:31:40;;;;;;;15.13;13.63;;;10.70;99.90;;;;;;5004026;28;20722;-81
2021/09/22 01:34:08;;;;;;;13.33;12.03;;;10.60;99.90;;;;;;5021614;28;20576;-80
2021/09/22 01:36:34;;;;;;;15.70;14.00;;;10.50;99.90;;;;;;5020999;28;20197;-81
2021/09/22 01:39:00;;;;;;;15.37;13.73;;;10.50;99.90;;;;;;5004050;28;20176;-80
2021/09/22 01:41:26;;;;;;;14.67;13.17;;;10.50;99.90;;;;;;5020816;28;20265;-80
2021/09/22 01:43:52;;;;;;;14.00;12.60;;;10.50;99.90;;;;;;5020982;28;20183;-80
2021/09/22 01:46:18;;;;;;;13.97;12.57;;;10.50;99.90;;;;;;5021217;28;20180;-80
2021/09/22 01:48:44;;;;;;;15.13;13.63;;;10.50;99.90;;;;;;5021016;28;20196;-80
2021/09/22 01:51:11;;;;;;;15.60;13.23;;;10.50;99.90;;;;;;5018993;28;20724;-80
2021/09/22 01:53:37;;;;;;;17.17;13.87;;;10.50;99.90;;;;;;4999950;28;20184;-80
2021/09/22 01:56:04;;;;;;;14.83;13.23;;;10.50;99.90;;;;;;5001315;28;20207;-81
2021/09/22 01:58:32;;;;;;;17.13;14.70;;;10.40;99.90;;;;;;5001883;28;20179;-80
2021/09/22 02:01:04;;;;;;;14.93;13.47;;;10.50;99.90;;;;;;5020139;28;20187;-81
2021/09/22 02:03:30;;;;;;;20.43;14.53;;;10.40;99.90;;;;;;5021494;28;20558;-80
2021/09/22 02:05:56;;;;;;;15.30;13.80;;;10.50;99.90;;;;;;5002843;28;20204;-80
2021/09/22 02:08:22;;;;;;;15.13;13.43;;;10.50;99.90;;;;;;5020404;28;20258;-80
2021/09/22 02:10:47;;;;;;;15.97;14.20;;;10.50;99.90;;;;;;5021244;28;20726;-80
2021/09/22 02:13:13;;;;;;;19.63;14.40;;;10.50;99.90;;;;;;5003932;28;20204;-80
2021/09/22 02:15:39;;;;;;;16.27;14.50;;;10.50;99.90;;;;;;5003120;28;20276;-80
2021/09/22 02:18:05;;;;;;;16.93;14.23;;;10.50;99.90;;;;;;5020239;28;20646;-80
2021/09/22 02:20:31;;;;;;;16.27;14.57;;;10.40;99.90;;;;;;5020749;28;20194;-81
2021/09/22 02:22:56;;;;;;;16.53;14.00;;;10.40;99.90;;;;;;5020501;28;20196;-80
2021/09/22 02:25:22;;;;;;;16.63;14.90;;;10.40;99.90;;;;;;5020419;28;20573;-80
2021/09/22 02:27:48;;;;;;;19.07;15.50;;;10.40;99.90;;;;;;5019706;28;20652;-80
2021/09/22 02:30:17;;;;;;;16.37;14.33;;;10.40;99.90;;;;;;5002833;28;20643;-80
2021/09/22 02:32:43;;;;;;;15.67;14.00;;;10.40;99.90;;;;;;5020190;28;20196;-80
2021/09/22 02:35:10;;;;;;;19.00;14.53;;;10.40;99.90;;;;;;5020025;28;20200;-80
2021/09/22 02:37:36;;;;;;;17.07;15.27;;;10.40;99.90;;;;;;5002723;28;20619;-80
2021/09/22 02:40:04;;;;;;;17.13;15.07;;;10.40;99.90;;;;;;5002761;28;20178;-80
2021/09/22 02:42:30;;;;;;;18.20;15.87;;;10.50;99.90;;;;;;5002958;28;20194;-80
2021/09/22 02:44:56;;;;;;;17.30;14.57;;;10.50;99.90;;;;;;5019988;28;20219;-80
2021/09/22 02:47:21;;;;;;;16.83;15.07;;;10.50;99.90;;;;;;5020685;28;20200;-80
2021/09/22 02:49:47;;;;;;;18.77;14.93;;;10.50;99.90;;;;;;5002349;28;20272;-80
2021/09/22 02:52:13;;;;;;;15.53;13.93;;;10.50;99.90;;;;;;5002457;28;20184;-80
2021/09/22 02:54:39;;;;;;;16.10;14.40;;;10.50;99.90;;;;;;5002700;28;20255;-80
2021/09/22 02:57:05;;;;;;;15.77;14.17;;;10.50;99.90;;;;;;5018847;28;20214;-80
2021/09/22 02:59:31;;;;;;;19.37;14.67;;;10.50;99.90;;;;;;5001863;28;20176;-80
2021/09/22 03:01:57;;;;;;;17.80;15.57;;;10.40;99.90;;;;;;5019569;28;20181;-80
2021/09/22 03:04:22;;;;;;;18.57;15.03;;;10.40;99.90;;;;;;5001853;28;20204;-80
2021/09/22 03:06:48;;;;;;;17.60;15.33;;;10.40;99.90;;;;;;5019449;28;20173;-80
2021/09/22 03:09:14;;;;;;;17.37;15.03;;;10.40;99.90;;;;;;5022568;28;20184;-80
2021/09/22 03:11:40;;;;;;;18.03;15.07;;;10.40;99.90;;;;;;5001187;28;20176;-80
2021/09/22 03:14:06;;;;;;;21.13;15.73;;;10.40;99.90;;;;;;5001836;28;20675;-80
2021/09/22 03:16:32;;;;;;;17.47;14.63;;;10.40;99.90;;;;;;5019626;28;20689;-80
2021/09/22 03:19:01;;;;;;;16.30;14.70;;;10.30;99.90;;;;;;5004207;28;20256;-80
2021/09/22 03:21:28;;;;;;;17.13;14.67;;;10.30;99.90;;;;;;5002192;28;20270;-80
2021/09/22 03:23:54;;;;;;;15.73;14.17;;;10.30;99.90;;;;;;5001770;28;20173;-80
2021/09/22 03:26:21;;;;;;;16.43;14.73;;;10.30;99.90;;;;;;5002666;28;20236;-80
2021/09/22 03:28:47;;;;;;;19.33;15.03;;;10.30;99.90;;;;;;5019519;28;20188;-80
2021/09/22 03:31:12;;;;;;;17.97;15.00;;;10.30;99.90;;;;;;5005549;28;20265;-80
2021/09/22 03:33:38;;;;;;;15.37;13.60;;;10.20;99.90;;;;;;5004728;28;20185;-80
2021/09/22 03:36:04;;;;;;;16.90;14.50;;;10.20;99.90;;;;;;5022754;28;20206;-80
2021/09/22 03:38:30;;;;;;;19.03;15.20;;;10.30;99.90;;;;;;5020821;28;20260;-80
2021/09/22 03:40:57;;;;;;;18.30;13.87;;;10.30;99.90;;;;;;5021211;28;20179;-80
2021/09/22 03:43:24;;;;;;;18.23;14.90;;;10.30;99.90;;;;;;5004109;28;20218;-80
2021/09/22 03:45:50;;;;;;;15.83;14.00;;;10.20;99.90;;;;;;5004853;28;20718;-80
2021/09/22 03:48:15;;;;;;;20.23;15.67;;;10.20;99.90;;;;;;5020699;28;20219;-80
2021/09/22 03:50:41;;;;;;;17.87;15.43;;;10.20;99.90;;;;;;5021456;28;20188;-80
2021/09/22 03:53:07;;;;;;;16.73;14.63;;;10.10;99.90;;;;;;5021206;28;20180;-80
2021/09/22 03:55:33;;;;;;;16.80;15.03;;;10.10;99.90;;;;;;5020883;28;20203;-80
2021/09/22 03:57:58;;;;;;;16.73;14.90;;;10.10;99.90;;;;;;5020669;28;20186;-80
2021/09/22 04:00:24;;;;;;;18.33;15.67;;;10.10;99.90;;;;;;5017602;28;20179;-80
2021/09/22 04:02:50;;;;;;;16.93;14.80;;;10.10;99.90;;;;;;5005801;28;20242;-80
2021/09/22 04:05:16;;;;;;;18.97;14.53;;;10.20;99.90;;;;;;5011919;28;20209;-80
2021/09/22 04:07:42;;;;;;;17.57;15.10;;;10.10;99.90;;;;;;5013794;28;20181;-80
2021/09/22 04:10:08;;;;;;;17.37;15.57;;;10.10;99.90;;;;;;5001792;28;20712;-80
2021/09/22 04:12:34;;;;;;;17.07;15.07;;;10.00;99.90;;;;;;5002369;28;20189;-80
2021/09/22 04:15:00;;;;;;;19.93;15.83;;;10.00;99.90;;;;;;5019055;28;20715;-80
2021/09/22 04:17:26;;;;;;;19.47;16.13;;;10.00;99.90;;;;;;5001639;28;20680;-81
2021/09/22 04:19:51;;;;;;;18.47;15.57;;;10.00;99.90;;;;;;5019968;28;20202;-80
2021/09/22 04:22:17;;;;;;;21.10;15.60;;;10.00;99.90;;;;;;5002223;28;20240;-80
2021/09/22 04:24:43;;;;;;;19.43;15.73;;;10.00;99.90;;;;;;5019604;28;20199;-80
2021/09/22 04:27:08;;;;;;;17.27;15.40;;;10.00;99.90;;;;;;5020059;28;20181;-80
2021/09/22 04:29:34;;;;;;;17.80;15.90;;;10.00;99.90;;;;;;5019649;28;20262;-80
2021/09/22 04:32:00;;;;;;;19.80;16.13;;;9.90;99.90;;;;;;5018950;28;20236;-80
2021/09/22 04:34:25;;;;;;;17.40;15.00;;;9.90;99.90;;;;;;5019272;28;20209;-80
2021/09/22 04:36:51;;;;;;;20.23;16.27;;;9.90;99.90;;;;;;5018536;28;20278;-80
2021/09/22 04:39:17;;;;;;;18.03;14.90;;;9.90;99.90;;;;;;5000826;28;20259;-80
2021/09/22 04:41:43;;;;;;;17.10;15.37;;;9.90;99.90;;;;;;5017334;28;20172;-80
2021/09/22 04:44:08;;;;;;;22.37;16.37;;;9.90;99.90;;;;;;5017970;28;20212;-80
2021/09/22 04:46:35;;;;;;;20.80;16.20;;;9.90;99.90;;;;;;5013087;28;20189;-80
2021/09/22 04:49:00;;;;;;;18.53;16.10;;;9.90;99.90;;;;;;4992037;28;20647;-80
2021/09/22 04:51:26;;;;;;;19.47;15.53;;;9.90;99.90;;;;;;4999075;28;20232;-79
2021/09/22 04:53:52;;;;;;;18.63;16.20;;;9.90;99.90;;;;;;5016994;28;20212;-79
2021/09/22 04:56:18;;;;;;;18.30;16.00;;;9.80;99.90;;;;;;4999715;28;20196;-80
2021/09/22 04:58:44;;;;;;;23.13;16.83;;;9.80;99.90;;;;;;4999068;28;20618;-80
2021/09/22 05:01:10;;;;;;;20.20;16.63;;;9.80;99.90;;;;;;5019375;28;20251;-80
2021/09/22 05:03:36;;;;;;;19.70;15.87;;;9.90;99.90;;;;;;5016764;28;20203;-80
2021/09/22 05:06:02;;;;;;;21.07;16.73;;;9.90;99.90;;;;;;5016036;28;20208;-80
2021/09/22 05:08:27;;;;;;;18.73;15.87;;;9.90;99.90;;;;;;4998583;28;20198;-79
2021/09/22 05:10:54;;;;;;;20.17;16.93;;;9.90;99.90;;;;;;5016241;28;20176;-80
2021/09/22 05:13:21;;;;;;;19.20;16.73;;;9.80;99.90;;;;;;5022546;28;20182;-79
2021/09/22 05:15:47;;;;;;;20.37;16.60;;;9.80;99.90;;;;;;5010001;28;20205;-80
2021/09/22 05:18:14;;;;;;;18.80;15.87;;;9.80;99.90;;;;;;5015246;28;20175;-79
2021/09/22 05:20:40;;;;;;;19.60;16.83;;;9.60;99.90;;;;;;5016504;28;20184;-80
2021/09/22 05:23:05;;;;;;;19.97;16.47;;;9.50;99.90;;;;;;5017169;28;20666;-80
2021/09/22 05:25:31;;;;;;;22.23;16.33;;;9.60;99.90;;;;;;5018192;28;20211;-79
2021/09/22 05:27:57;;;;;;;19.27;16.60;;;9.50;99.90;;;;;;5010936;28;20183;-80
2021/09/22 05:30:23;;;;;;;18.57;15.80;;;9.60;99.90;;;;;;5001000;28;20519;-80
2021/09/22 05:32:48;;;;;;;19.43;16.30;;;9.50;99.90;;;;;;5019126;28;20191;-78
2021/09/22 05:35:14;;;;;;;18.90;15.93;;;9.60;99.90;;;;;;5002689;28;20254;-77
2021/09/22 05:37:40;;;;;;;22.60;17.73;;;9.50;99.90;;;;;;5000282;28;20176;-78
2021/09/22 05:40:07;;;;;;;22.20;16.47;;;9.60;99.90;;;;;;5023495;28;20230;-77
2021/09/22 05:42:33;;;;;;;22.50;16.67;;;9.60;99.90;;;;;;5018143;28;20173;-77
2021/09/22 05:44:59;;;;;;;22.60;16.50;;;9.60;99.90;;;;;;5012951;28;20211;-77
2021/09/22 05:47:25;;;;;;;20.13;16.37;;;9.70;99.90;;;;;;5004810;28;20181;-78
2021/09/22 05:49:50;;;;;;;22.87;16.63;;;9.60;99.90;;;;;;5022691;28;20544;-77
2021/09/22 05:52:16;;;;;;;20.00;16.03;;;9.60;99.90;;;;;;5004317;28;20186;-78
2021/09/22 05:54:42;;;;;;;23.77;17.13;;;9.50;99.90;;;;;;5017069;28;20192;-77
2021/09/22 05:57:07;;;;;;;21.20;17.00;;;9.50;99.90;;;;;;5006817;28;20352;-77
2021/09/22 05:59:33;;;;;;;24.80;17.40;;;9.50;99.90;;;;;;5016902;28;20184;-79
2021/09/22 06:01:59;;;;;;;23.20;17.33;;;9.50;99.90;;;;;;5029925;28;20185;-78
2021/09/22 06:04:25;;;;;;;21.23;16.90;;;9.60;99.90;;;;;;5012559;28;20922;-78
2021/09/22 06:06:50;;;;;;;24.83;18.03;;;9.60;99.90;;;;;;5024431;28;20203;-79
2021/09/22 06:09:16;;;;;;;22.03;17.67;;;9.60;99.90;;;;;;5009753;28;20191;-80
2021/09/22 06:11:42;;;;;;;25.30;17.57;;;9.70;99.90;;;;;;5002927;28;20183;-79
2021/09/22 06:14:07;;;;;;;24.97;18.23;;;9.70;99.90;;;;;;4986103;28;20201;-80
2021/09/22 06:16:33;;;;;;;37.53;19.73;;;9.70;99.90;;;;;;5005351;28;20197;-80
2021/09/22 06:19:01;;;;;;;35.53;20.00;;;9.80;99.90;;;;;;4990230;28;20837;-79
2021/09/22 06:21:27;;;;;;;26.70;18.97;;;9.80;99.90;;;;;;5000436;28;20187;-79
2021/09/22 06:23:53;;;;;;;28.93;18.50;;;9.80;99.90;;;;;;5018524;28;20567;-80
2021/09/22 06:26:21;;;;;;;28.20;18.97;;;9.90;99.90;;;;;;5018213;28;20182;-79
2021/09/22 06:28:47;;;;;;;21.77;17.73;;;10.00;99.90;;;;;;5019869;28;20176;-80
2021/09/22 06:31:13;;;;;;;25.07;17.97;;;10.10;99.90;;;;;;5019612;28;20272;-80
2021/09/22 06:33:39;;;;;;;23.20;18.43;;;10.10;99.90;;;;;;5018107;28;20262;-80
2021/09/22 06:36:04;;;;;;;24.83;19.00;;;10.10;99.90;;;;;;5018135;28;20214;-80
2021/09/22 06:38:30;;;;;;;27.27;18.67;;;10.20;99.90;;;;;;5017994;28;20238;-79
2021/09/22 06:40:56;;;;;;;23.40;18.23;;;10.20;99.90;;;;;;5018188;28;20192;-79
2021/09/22 06:43:22;;;;;;;22.73;17.77;;;10.30;99.90;;;;;;5018550;28;20174;-80
2021/09/22 06:45:48;;;;;;;21.33;17.47;;;10.40;99.90;;;;;;5013689;28;20241;-79
2021/09/22 06:48:13;;;;;;;21.80;17.67;;;10.30;99.90;;;;;;5019442;28;20185;-79
2021/09/22 06:50:39;;;;;;;26.87;19.23;;;10.30;99.90;;;;;;5019846;28;20656;-80
2021/09/22 06:53:05;;;;;;;25.77;19.53;;;10.30;99.90;;;;;;5020210;28;20543;-79
2021/09/22 06:55:31;;;;;;;23.63;18.50;;;10.40;99.90;;;;;;5019578;28;20208;-78
2021/09/22 06:57:56;;;;;;;26.93;19.07;;;10.50;99.90;;;;;;5019205;28;20182;-80
2021/09/22 07:00:22;;;;;;;28.00;19.77;;;10.50;99.90;;;;;;5001595;28;20178;-80
2021/09/22 07:02:48;;;;;;;23.17;18.93;;;10.50;99.90;;;;;;5019975;28;20178;-79
2021/09/22 07:05:14;;;;;;;22.93;19.10;;;10.50;99.90;;;;;;5019282;28;20202;-80
2021/09/22 07:07:45;;;;;;;24.50;18.90;;;10.70;99.90;;;;;;5004720;28;20180;-79
2021/09/22 07:10:12;;;;;;;23.30;18.00;;;10.70;99.90;;;;;;5019514;28;20177;-80
2021/09/22 07:12:38;;;;;;;22.90;19.00;;;10.70;99.90;;;;;;5017937;28;20181;-80
2021/09/22 07:15:03;;;;;;;24.73;19.17;;;10.70;99.90;;;;;;5019148;28;20206;-80
2021/09/22 07:17:29;;;;;;;21.83;18.40;;;10.80;99.90;;;;;;5014669;28;20208;-79
2021/09/22 07:19:55;;;;;;;25.47;18.63;;;10.90;99.90;;;;;;4999777;28;20192;-79
2021/09/22 07:22:21;;;;;;;23.40;18.60;;;10.90;99.90;;;;;;5017948;28;20218;-80
2021/09/22 07:24:47;;;;;;;26.17;19.67;;;11.00;99.90;;;;;;5016580;28;20330;-79
2021/09/22 07:27:13;;;;;;;26.50;20.00;;;11.10;99.90;;;;;;4999034;28;20175;-80
2021/09/22 07:29:39;;;;;;;25.10;19.40;;;11.10;99.90;;;;;;5017937;28;20185;-80
2021/09/22 07:32:06;;;;;;;22.63;19.30;;;11.10;99.90;;;;;;5020263;28;20209;-80
2021/09/22 07:34:33;;;;;;;22.83;18.40;;;11.20;99.90;;;;;;5020831;28;20710;-80
2021/09/22 07:37:00;;;;;;;25.87;18.33;;;11.20;99.90;;;;;;5010845;28;20204;-80
2021/09/22 07:39:26;;;;;;;27.90;19.67;;;11.20;99.90;;;;;;5023207;28;20186;-80
2021/09/22 07:41:52;;;;;;;22.77;18.97;;;11.30;99.90;;;;;;5025373;28;20189;-79
2021/09/22 07:44:17;;;;;;;24.37;18.13;;;11.20;99.90;;;;;;5000782;28;20210;-80
2021/09/22 07:46:43;;;;;;;25.03;19.67;;;11.30;99.90;;;;;;5015516;28;20179;-80
2021/09/22 07:49:09;;;;;;;26.37;19.43;;;11.40;99.90;;;;;;5014019;28;20204;-80
2021/09/22 07:51:34;;;;;;;22.37;18.00;;;11.50;99.90;;;;;;5010456;28;20182;-80
2021/09/22 07:54:00;;;;;;;23.70;19.03;;;11.60;99.90;;;;;;5026774;28;20204;-80
2021/09/22 07:56:26;;;;;;;29.10;17.57;;;11.60;99.90;;;;;;5001526;28;20257;-79
2021/09/22 07:58:51;;;;;;;22.03;18.53;;;11.70;99.90;;;;;;5006626;28;20174;-79
2021/09/22 08:01:17;;;;;;;23.97;18.80;;;11.70;99.90;;;;;;5018309;28;20207;-80
2021/09/22 08:03:42;;;;;;;23.03;18.83;;;11.80;99.90;;;;;;5000164;28;20724;-80
2021/09/22 08:06:08;;;;;;;22.37;18.57;;;11.90;99.90;;;;;;4998439;28;20241;-80
2021/09/22 08:08:34;;;;;;;26.33;18.50;;;12.00;99.90;;;;;;4999502;28;20182;-80
2021/09/22 08:11:00;;;;;;;24.33;19.33;;;12.00;99.90;;;;;;4995221;28;20178;-79
2021/09/22 08:13:26;;;;;;;21.97;18.80;;;12.00;99.90;;;;;;5018818;28;20181;-80
2021/09/22 08:15:52;;;;;;;24.30;19.10;;;12.10;99.90;;;;;;5019007;28;20690;-79
2021/09/22 08:18:18;;;;;;;28.63;20.87;;;12.20;99.90;;;;;;5018928;28;20175;-79
2021/09/22 08:20:43;;;;;;;24.70;20.03;;;12.20;99.90;;;;;;5001607;28;20176;-79
2021/09/22 08:23:10;;;;;;;26.77;18.13;;;12.30;99.90;;;;;;4998909;28;20281;-80
2021/09/22 08:25:35;;;;;;;25.20;19.87;;;12.40;99.90;;;;;;4999571;28;20206;-80
2021/09/22 08:28:01;;;;;;;22.57;19.50;;;12.50;99.90;;;;;;5016861;28;20180;-80
2021/09/22 08:30:27;;;;;;;22.87;20.27;;;12.60;99.90;;;;;;5017296;28;20652;-79
2021/09/22 08:32:53;;;;;;;24.07;20.63;;;12.70;99.90;;;;;;4999988;28;20209;-79
2021/09/22 08:35:18;;;;;;;25.70;20.63;;;12.70;99.90;;;;;;5017704;28;20225;-80
2021/09/22 08:37:45;;;;;;;23.80;19.90;;;12.80;99.90;;;;;;5017153;28;20185;-80
2021/09/22 08:40:11;;;;;;;24.77;20.13;;;12.80;99.90;;;;;;4999429;28;20183;-80
2021/09/22 08:42:38;;;;;;;24.50;20.70;;;12.90;99.90;;;;;;5000999;28;20209;-80
2021/09/22 08:45:04;;;;;;;26.60;20.73;;;13.00;99.90;;;;;;5016994;28;20214;-80
2021/09/22 08:47:30;;;;;;;25.10;20.33;;;13.00;99.90;;;;;;5018141;28;20177;-80
2021/09/22 08:49:56;;;;;;;24.07;20.20;;;13.10;99.90;;;;;;5018957;28;20193;-80
2021/09/22 08:52:22;;;;;;;23.43;19.23;;;13.20;99.90;;;;;;5000275;28;20267;-80
2021/09/22 08:54:48;;;;;;;22.10;19.47;;;13.30;99.90;;;;;;5018647;28;20221;-80
2021/09/22 08:57:13;;;;;;;24.00;19.20;;;13.40;99.90;;;;;;5018098;28;20204;-80
2021/09/22 08:59:39;;;;;;;23.63;19.27;;;13.40;99.90;;;;;;5018280;28;20167;-80
2021/09/22 09:02:11;;;;;;;21.83;17.63;;;13.40;99.90;;;;;;4996942;28;20187;-80
2021/09/22 09:04:38;;;;;;;17.27;15.40;;;13.50;99.90;;;;;;5015669;28;20230;-80
2021/09/22 09:07:05;;;;;;;19.57;16.10;;;13.50;99.90;;;;;;5018974;28;20181;-80
2021/09/22 09:09:38;;;;;;;17.73;15.83;;;13.60;99.90;;;;;;5017503;28;20185;-80
2021/09/22 09:12:18;;;;;;;18.60;16.60;;;13.70;99.90;;;;;;5000343;28;20199;-80
2021/09/22 09:14:56;;;;;;;15.97;14.27;;;13.70;99.90;;;;;;5017673;28;20198;-80
2021/09/22 09:17:41;;;;;;;17.53;15.47;;;13.80;99.90;;;;;;5017414;28;20237;-80
2021/09/22 09:20:21;;;;;;;16.17;14.03;;;13.90;99.90;;;;;;4999213;28;20230;-80
2021/09/22 09:23:04;;;;;;;15.97;14.33;;;14.00;99.90;;;;;;4997152;28;20239;-80
2021/09/22 09:26:03;;;;;;;15.20;13.60;;;14.00;99.90;;;;;;4986868;28;20194;-80
2021/09/22 09:28:34;;;;;;;14.57;13.13;;;14.00;99.90;;;;;;5009793;28;20198;-80
2021/09/22 09:31:11;;;;;;;15.13;13.73;;;14.10;99.90;;;;;;5010299;28;20688;-81
2021/09/22 09:33:44;;;;;;;14.13;12.87;;;14.20;99.90;;;;;;4998707;28;20176;-80
2021/09/22 09:36:32;;;;;;;15.47;13.30;;;14.30;99.90;;;;;;5000483;28;20203;-80
2021/09/22 09:39:12;;;;;;;13.63;12.33;;;14.50;99.90;;;;;;4986275;28;20168;-80
2021/09/22 09:41:51;;;;;;;14.20;12.90;;;14.50;99.90;;;;;;5017015;28;20179;-80
2021/09/22 09:44:29;;;;;;;14.10;12.80;;;14.50;99.90;;;;;;5002692;28;20214;-80
2021/09/22 09:47:09;;;;;;;14.77;13.27;;;14.60;99.90;;;;;;5083150;22;20665;-80
2021/09/22 09:49:37;;;;;;;14.63;13.03;;;14.60;99.90;;;;;;5073825;28;20185;-80
2021/09/22 09:52:04;;;;;;;15.93;12.93;;;14.70;99.90;;;;;;5071869;28;20166;-80
2021/09/22 09:54:33;;;;;;;13.33;12.13;;;14.80;99.90;;;;;;5064997;28;20154;-79
2021/09/22 09:57:12;;;;;;;13.70;12.30;;;14.80;99.90;;;;;;5053112;28;20221;-80
2021/09/22 09:59:48;;;;;;;13.57;12.10;;;14.90;99.90;;;;;;5054900;28;20182;-80
2021/09/22 10:02:29;;;;;;;14.67;13.27;;;15.00;99.90;;;;;;5056062;28;20174;-79
2021/09/22 10:04:57;;;;;;;14.87;13.20;;;15.00;99.90;;;;;;5066025;28;20179;-80
2021/09/22 10:07:23;;;;;;;14.07;12.77;;;15.00;99.90;;;;;;5055791;28;20178;-80
2021/09/22 10:09:50;;;;;;;15.70;14.20;;;15.10;99.90;;;;;;5072255;28;20178;-80
2021/09/22 10:12:19;;;;;;;15.93;14.37;;;15.20;99.90;;;;;;5066190;28;20180;-79
2021/09/22 10:14:47;;;;;;;16.50;14.70;;;15.30;99.90;;;;;;5060934;28;20185;-79
2021/09/22 10:17:16;;;;;;;16.33;14.83;;;15.20;99.90;;;;;;5066760;28;20202;-79
2021/09/22 10:19:45;;;;;;;15.47;13.87;;;15.30;99.90;;;;;;5056878;28;20162;-80
2021/09/22 10:22:12;;;;;;;16.53;15.03;;;15.20;99.90;;;;;;5065533;28;20182;-80
2021/09/22 10:24:41;;;;;;;15.83;14.20;;;15.30;99.90;;;;;;5047961;28;20182;-79
2021/09/22 10:27:07;;;;;;;17.67;14.27;;;15.30;99.90;;;;;;5038355;28;20217;-79
2021/09/22 10:29:38;;;;;;;15.37;13.20;;;15.40;99.90;;;;;;5071259;28;20171;-79
2021/09/22 10:32:05;;;;;;;15.63;13.23;;;15.50;99.90;;;;;;5056069;28;20177;-80
2021/09/22 10:34:39;;;;;;;13.77;12.57;;;15.60;99.90;;;;;;5068607;28;20179;-81
2021/09/22 10:37:29;;;;;;;15.10;13.57;;;15.70;99.90;;;;;;5071125;28;20218;-80
2021/09/22 10:39:55;;;;;;;13.87;12.60;;;15.80;99.90;;;;;;5065343;28;20155;-79
2021/09/22 10:42:34;;;;;;;12.63;11.63;;;15.80;99.90;;;;;;5058909;28;20182;-80
2021/09/22 10:45:23;;;;;;;12.17;11.17;;;15.80;99.90;;;;;;5056265;28;20182;-80
2021/09/22 10:47:49;;;;;;;11.60;10.60;;;15.80;99.90;;;;;;5061618;28;20732;-80
2021/09/22 10:50:40;;;;;;;15.73;12.40;;;15.90;99.90;;;;;;5055308;28;20170;-80
2021/09/22 10:53:32;;;;;;;12.70;11.60;;;16.00;99.90;;;;;;5043618;28;20226;-81
2021/09/22 10:56:25;;;;;;;14.40;13.00;;;16.10;99.90;;;;;;5055850;28;20198;-80
2021/09/22 10:58:53;;;;;;;16.23;13.30;;;16.20;99.90;;;;;;5054713;28;20180;-80
2021/09/22 11:01:38;;;;;;;14.40;12.97;;;16.30;99.90;;;;;;5058482;28;20170;-80
2021/09/22 11:04:12;;;;;;;14.67;13.27;;;16.30;99.90;;;;;;5052486;28;20183;-80
2021/09/22 11:06:47;;;;;;;14.27;12.93;;;16.20;99.90;;;;;;5055444;28;20202;-81
2021/09/22 11:09:33;;;;;;;13.53;12.13;;;15.40;99.90;;;;;;5055603;28;20171;-79
2021/09/22 11:11:59;;;;;;;13.60;12.40;;;16.60;99.90;;;;;;5057104;28;20174;-81
2021/09/22 11:14:35;;;;;;;13.73;12.33;;;16.60;99.90;;;;;;5057616;28;20227;-79
2021/09/22 11:17:20;;;;;;;13.20;12.07;;;16.50;99.90;;;;;;5066227;28;20216;-80
2021/09/22 11:19:55;;;;;;;13.97;12.67;;;16.60;99.90;;;;;;5053486;28;20635;-82
2021/09/22 11:22:24;;;;;;;13.20;12.00;;;16.50;99.90;;;;;;5051803;28;20585;-81
2021/09/22 11:24:57;;;;;;;12.33;11.23;;;16.60;99.90;;;;;;5055790;28;20183;-80
2021/09/22 11:27:27;;;;;;;13.33;12.17;;;16.60;99.90;;;;;;5057769;28;20234;-80
2021/09/22 11:30:02;;;;;;;13.77;12.30;;;16.60;99.90;;;;;;5054618;28;20210;-81
2021/09/22 11:32:40;;;;;;;12.33;11.00;;;16.70;99.90;;;;;;5054198;28;20185;-80
2021/09/22 11:35:10;;;;;;;10.97;9.97;;;16.80;99.90;;;;;;5055826;28;20185;-81
2021/09/22 11:37:47;;;;;;;10.53;9.47;;;16.80;99.90;;;;;;5058063;28;20204;-80
2021/09/22 11:40:16;;;;;;;11.07;9.97;;;17.30;99.90;;;;;;5054543;28;20224;-80
2021/09/22 11:43:07;;;;;;;11.63;10.63;;;17.20;99.90;;;;;;5056107;28;20232;-80
2021/09/22 11:45:45;;;;;;;10.43;9.33;;;16.90;99.90;;;;;;5044786;28;20193;-80
2021/09/22 11:48:14;;;;;;;10.17;9.30;;;16.90;99.90;;;;;;5049789;28;20198;-79
2021/09/22 11:50:44;;;;;;;9.00;8.30;;;16.80;99.90;;;;;;5055365;28;20748;-80
2021/09/22 11:53:29;;;;;;;7.17;6.60;;;16.90;99.90;;;;;;5053656;28;20179;-81
2021/09/22 11:55:56;;;;;;;6.70;6.00;;;16.50;99.90;;;;;;5057659;28;20236;-80
2021/09/22 11:58:27;;;;;;;6.37;5.60;;;17.00;99.90;;;;;;5053803;28;20178;-80
2021/09/22 12:00:55;;;;;;;5.97;5.47;;;17.10;99.90;;;;;;5053425;28;20680;-80
2021/09/22 12:03:25;;;;;;;5.77;5.37;;;17.10;99.90;;;;;;5057156;28;20614;-79
2021/09/22 12:06:09;;;;;;;6.20;5.60;;;17.20;99.90;;;;;;5054142;28;20204;-80
2021/09/22 12:08:38;;;;;;;6.43;5.83;;;17.30;99.90;;;;;;5051576;28;20170;-80
2021/09/22 12:11:05;;;;;;;5.73;5.20;;;17.40;99.90;;;;;;5053585;28;20181;-79
2021/09/22 12:13:39;;;;;;;5.77;5.27;;;17.40;99.90;;;;;;5052922;28;20988;-81
2021/09/22 12:16:05;;;;;;;5.60;5.10;;;17.30;99.90;;;;;;5052383;28;20256;-80
2021/09/22 12:18:31;;;;;;;5.40;5.00;;;17.30;99.90;;;;;;5061962;28;20673;-82
2021/09/22 12:21:00;;;;;;;5.93;5.33;;;17.30;99.90;;;;;;5054215;28;20158;-79
2021/09/22 12:23:31;;;;;;;5.30;4.90;;;17.40;99.90;;;;;;5052549;28;20179;-79
2021/09/22 12:26:16;;;;;;;6.40;4.83;;;17.40;99.90;;;;;;5057870;28;20173;-80
2021/09/22 12:28:43;;;;;;;4.90;4.50;;;17.40;99.90;;;;;;5051565;28;20173;-80
2021/09/22 12:31:21;;;;;;;4.93;4.57;;;17.50;99.90;;;;;;5060159;28;20563;-79
2021/09/22 12:33:50;;;;;;;4.93;4.53;;;17.40;99.90;;;;;;5053615;28;20176;-79
2021/09/22 12:36:18;;;;;;;5.10;4.60;;;17.40;99.90;;;;;;5052899;28;20239;-80